sensor_id;sensor_type;location;lat;lon;timestamp;P1;durP1;ratioP1;P2;durP2;ratioP2
49962;SDS011;36180;57.678;11.910;2022-09-01T00:02:19;3.10;;;2.42;;
49962;SDS011;36180;57.678;11.910;2022-09-01T00:04:52;3.10;;;2.30;;
49962;SDS011;36180;57.678;11.910;2022-09-01T00:07:22;4.15;;;2.47;;
49962;SDS011;36180;57.678;11.910;2022-09-01T00:09:50;3.58;;;2.38;;
49962;SDS011;36180;57.678;11.910;2022-09-01T00:12:17;3.28;;;2.47;;
49962;SDS011;36180;57.678;11.910;2022-09-01T00:14:46;4.07;;;2.47;;
49962;SDS011;36180;57.678;11.910;2022-09-01T00:17:14;4.53;;;2.15;;
49962;SDS011;36180;57.678;11.910;2022-09-01T00:19:41;3.78;;;2.20;;
49962;SDS011;36180;57.678;11.910;2022-09-01T00:22:10;3.03;;;2.22;;
49962;SDS011;36180;57.678;11.910;2022-09-01T00:24:38;4.75;;;2.38;;
49962;SDS011;36180;57.678;11.910;2022-09-01T00:27:05;4.22;;;2.75;;
49962;SDS011;36180;57.678;11.910;2022-09-01T00:29:32;4.15;;;2.40;;
49962;SDS011;36180;57.678;11.910;2022-09-01T00:31:59;5.30;;;2.50;;
49962;SDS011;36180;57.678;11.910;2022-09-01T00:34:26;3.78;;;2.30;;
49962;SDS011;36180;57.678;11.910;2022-09-01T00:36:53;2.78;;;1.95;;
49962;SDS011;36180;57.678;11.910;2022-09-01T00:39:21;3.97;;;2.55;;
49962;SDS011;36180;57.678;11.910;2022-09-01T00:41:49;4.57;;;2.42;;
49962;SDS011;36180;57.678;11.910;2022-09-01T00:44:17;6.82;;;2.58;;
49962;SDS011;36180;57.678;11.910;2022-09-01T00:46:48;3.17;;;2.08;;
49962;SDS011;36180;57.678;11.910;2022-09-01T00:49:18;4.13;;;2.08;;
49962;SDS011;36180;57.678;11.910;2022-09-01T00:51:48;2.65;;;2.00;;
49962;SDS011;36180;57.678;11.910;2022-09-01T00:54:17;3.90;;;2.13;;
49962;SDS011;36180;57.678;11.910;2022-09-01T00:56:48;3.22;;;1.77;;
49962;SDS011;36180;57.678;11.910;2022-09-01T00:59:16;3.10;;;1.67;;
49962;SDS011;36180;57.678;11.910;2022-09-01T01:01:44;3.72;;;2.20;;
49962;SDS011;36180;57.678;11.910;2022-09-01T01:04:12;2.55;;;1.70;;
49962;SDS011;36180;57.678;11.910;2022-09-01T01:06:40;2.95;;;2.00;;
49962;SDS011;36180;57.678;11.910;2022-09-01T01:09:07;2.30;;;2.10;;
49962;SDS011;36180;57.678;11.910;2022-09-01T01:11:35;2.78;;;1.85;;
49962;SDS011;36180;57.678;11.910;2022-09-01T01:14:04;3.45;;;2.20;;
49962;SDS011;36180;57.678;11.910;2022-09-01T01:16:37;5.97;;;2.00;;
49962;SDS011;36180;57.678;11.910;2022-09-01T01:19:10;4.40;;;1.90;;
49962;SDS011;36180;57.678;11.910;2022-09-01T01:22:02;3.83;;;2.20;;
49962;SDS011;36180;57.678;11.910;2022-09-01T01:24:50;6.05;;;2.08;;
49962;SDS011;36180;57.678;11.910;2022-09-01T01:27:17;3.63;;;2.42;;
49962;SDS011;36180;57.678;11.910;2022-09-01T01:29:46;2.60;;;2.05;;
49962;SDS011;36180;57.678;11.910;2022-09-01T01:32:16;5.22;;;2.10;;
49962;SDS011;36180;57.678;11.910;2022-09-01T01:34:43;4.75;;;2.42;;
49962;SDS011;36180;57.678;11.910;2022-09-01T01:37:11;4.68;;;2.50;;
49962;SDS011;36180;57.678;11.910;2022-09-01T01:39:40;3.35;;;2.20;;
49962;SDS011;36180;57.678;11.910;2022-09-01T01:42:10;2.65;;;2.30;;
49962;SDS011;36180;57.678;11.910;2022-09-01T01:44:37;4.10;;;2.10;;
49962;SDS011;36180;57.678;11.910;2022-09-01T01:47:05;4.18;;;1.90;;
49962;SDS011;36180;57.678;11.910;2022-09-01T01:49:38;5.85;;;2.13;;
49962;SDS011;36180;57.678;11.910;2022-09-01T01:52:07;2.90;;;1.92;;
49962;SDS011;36180;57.678;11.910;2022-09-01T01:54:39;3.00;;;1.92;;
49962;SDS011;36180;57.678;11.910;2022-09-01T01:57:07;3.45;;;1.67;;
49962;SDS011;36180;57.678;11.910;2022-09-01T01:59:36;3.35;;;1.85;;
49962;SDS011;36180;57.678;11.910;2022-09-01T02:02:05;2.60;;;1.80;;
49962;SDS011;36180;57.678;11.910;2022-09-01T02:04:32;1.92;;;1.70;;
49962;SDS011;36180;57.678;11.910;2022-09-01T02:07:04;2.33;;;1.63;;
49962;SDS011;36180;57.678;11.910;2022-09-01T02:09:36;3.00;;;1.92;;
49962;SDS011;36180;57.678;11.910;2022-09-01T02:12:05;1.67;;;1.50;;
49962;SDS011;36180;57.678;11.910;2022-09-01T02:14:34;2.88;;;1.40;;
49962;SDS011;36180;57.678;11.910;2022-09-01T02:17:02;3.08;;;1.52;;
49962;SDS011;36180;57.678;11.910;2022-09-01T02:19:32;2.60;;;1.70;;
49962;SDS011;36180;57.678;11.910;2022-09-01T02:22:03;4.25;;;1.33;;
49962;SDS011;36180;57.678;11.910;2022-09-01T02:24:30;2.95;;;1.55;;
49962;SDS011;36180;57.678;11.910;2022-09-01T02:26:57;2.85;;;1.30;;
49962;SDS011;36180;57.678;11.910;2022-09-01T02:29:26;2.55;;;1.67;;
49962;SDS011;36180;57.678;11.910;2022-09-01T02:31:54;1.75;;;1.60;;
49962;SDS011;36180;57.678;11.910;2022-09-01T02:34:24;3.05;;;1.50;;
49962;SDS011;36180;57.678;11.910;2022-09-01T02:36:54;1.73;;;1.48;;
49962;SDS011;36180;57.678;11.910;2022-09-01T02:39:24;2.65;;;1.55;;
49962;SDS011;36180;57.678;11.910;2022-09-01T02:41:53;3.78;;;1.80;;
49962;SDS011;36180;57.678;11.910;2022-09-01T02:44:25;3.85;;;2.05;;
49962;SDS011;36180;57.678;11.910;2022-09-01T02:46:54;10.18;;;2.17;;
49962;SDS011;36180;57.678;11.910;2022-09-01T02:49:24;2.45;;;1.83;;
49962;SDS011;36180;57.678;11.910;2022-09-01T02:51:53;2.92;;;1.60;;
49962;SDS011;36180;57.678;11.910;2022-09-01T02:54:28;1.95;;;1.40;;
49962;SDS011;36180;57.678;11.910;2022-09-01T02:56:55;1.98;;;0.98;;
49962;SDS011;36180;57.678;11.910;2022-09-01T02:59:23;3.25;;;1.00;;
49962;SDS011;36180;57.678;11.910;2022-09-01T03:04:23;0.90;;;0.80;;
49962;SDS011;36180;57.678;11.910;2022-09-01T03:06:53;2.33;;;0.85;;
49962;SDS011;36180;57.678;11.910;2022-09-01T03:09:22;1.00;;;0.80;;
49962;SDS011;36180;57.678;11.910;2022-09-01T03:11:50;1.98;;;0.90;;
49962;SDS011;36180;57.678;11.910;2022-09-01T03:14:19;3.55;;;0.85;;
49962;SDS011;36180;57.678;11.910;2022-09-01T03:16:48;1.17;;;1.00;;
49962;SDS011;36180;57.678;11.910;2022-09-01T03:19:15;1.50;;;0.90;;
49962;SDS011;36180;57.678;11.910;2022-09-01T03:21:45;2.28;;;0.90;;
49962;SDS011;36180;57.678;11.910;2022-09-01T03:24:17;1.08;;;0.90;;
49962;SDS011;36180;57.678;11.910;2022-09-01T03:26:47;0.70;;;0.70;;
49962;SDS011;36180;57.678;11.910;2022-09-01T03:29:17;0.98;;;0.70;;
49962;SDS011;36180;57.678;11.910;2022-09-01T03:31:45;0.90;;;0.70;;
49962;SDS011;36180;57.678;11.910;2022-09-01T03:34:12;1.25;;;0.63;;
49962;SDS011;36180;57.678;11.910;2022-09-01T03:36:48;3.88;;;0.85;;
49962;SDS011;36180;57.678;11.910;2022-09-01T03:39:22;0.57;;;0.57;;
49962;SDS011;36180;57.678;11.910;2022-09-01T03:41:49;1.38;;;0.90;;
49962;SDS011;36180;57.678;11.910;2022-09-01T03:44:16;2.20;;;0.70;;
49962;SDS011;36180;57.678;11.910;2022-09-01T03:46:44;1.77;;;0.70;;
49962;SDS011;36180;57.678;11.910;2022-09-01T03:49:11;0.80;;;0.80;;
49962;SDS011;36180;57.678;11.910;2022-09-01T03:51:40;1.73;;;0.80;;
49962;SDS011;36180;57.678;11.910;2022-09-01T03:54:10;1.10;;;0.60;;
49962;SDS011;36180;57.678;11.910;2022-09-01T03:56:37;1.45;;;0.75;;
49962;SDS011;36180;57.678;11.910;2022-09-01T03:59:11;1.52;;;0.80;;
49962;SDS011;36180;57.678;11.910;2022-09-01T04:01:42;3.63;;;0.70;;
49962;SDS011;36180;57.678;11.910;2022-09-01T04:04:11;2.47;;;0.80;;
49962;SDS011;36180;57.678;11.910;2022-09-01T04:06:39;0.95;;;0.60;;
49962;SDS011;36180;57.678;11.910;2022-09-01T04:09:07;0.63;;;0.60;;
49962;SDS011;36180;57.678;11.910;2022-09-01T04:11:37;1.92;;;0.60;;
49962;SDS011;36180;57.678;11.910;2022-09-01T04:14:06;0.90;;;0.70;;
49962;SDS011;36180;57.678;11.910;2022-09-01T04:16:37;0.77;;;0.63;;
49962;SDS011;36180;57.678;11.910;2022-09-01T04:19:19;2.40;;;0.80;;
49962;SDS011;36180;57.678;11.910;2022-09-01T04:24:19;0.77;;;0.77;;
49962;SDS011;36180;57.678;11.910;2022-09-01T04:26:50;1.35;;;0.90;;
49962;SDS011;36180;57.678;11.910;2022-09-01T04:29:18;2.28;;;0.80;;
49962;SDS011;36180;57.678;11.910;2022-09-01T04:31:51;1.13;;;0.82;;
49962;SDS011;36180;57.678;11.910;2022-09-01T04:34:18;0.93;;;0.82;;
49962;SDS011;36180;57.678;11.910;2022-09-01T04:36:46;2.70;;;1.00;;
49962;SDS011;36180;57.678;11.910;2022-09-01T04:39:20;1.30;;;1.08;;
49962;SDS011;36180;57.678;11.910;2022-09-01T04:41:50;1.58;;;0.98;;
49962;SDS011;36180;57.678;11.910;2022-09-01T04:44:17;1.20;;;1.10;;
49962;SDS011;36180;57.678;11.910;2022-09-01T04:46:45;2.63;;;0.88;;
49962;SDS011;36180;57.678;11.910;2022-09-01T04:49:16;4.72;;;1.50;;
49962;SDS011;36180;57.678;11.910;2022-09-01T04:51:47;13.00;;;1.80;;
49962;SDS011;36180;57.678;11.910;2022-09-01T04:54:15;4.68;;;1.35;;
49962;SDS011;36180;57.678;11.910;2022-09-01T04:56:46;4.60;;;1.50;;
49962;SDS011;36180;57.678;11.910;2022-09-01T04:59:17;5.53;;;1.40;;
49962;SDS011;36180;57.678;11.910;2022-09-01T05:01:51;5.55;;;1.40;;
49962;SDS011;36180;57.678;11.910;2022-09-01T05:04:21;1.58;;;1.25;;
49962;SDS011;36180;57.678;11.910;2022-09-01T05:06:52;1.40;;;1.30;;
49962;SDS011;36180;57.678;11.910;2022-09-01T05:09:24;2.42;;;1.13;;
49962;SDS011;36180;57.678;11.910;2022-09-01T05:12:00;2.08;;;1.30;;
49962;SDS011;36180;57.678;11.910;2022-09-01T05:14:38;2.38;;;1.20;;
49962;SDS011;36180;57.678;11.910;2022-09-01T05:17:07;2.30;;;1.25;;
49962;SDS011;36180;57.678;11.910;2022-09-01T05:19:35;2.17;;;1.48;;
49962;SDS011;36180;57.678;11.910;2022-09-01T05:22:03;5.22;;;1.30;;
49962;SDS011;36180;57.678;11.910;2022-09-01T05:24:37;4.35;;;1.27;;
49962;SDS011;36180;57.678;11.910;2022-09-01T05:27:05;3.42;;;1.58;;
49962;SDS011;36180;57.678;11.910;2022-09-01T05:29:37;3.42;;;1.63;;
49962;SDS011;36180;57.678;11.910;2022-09-01T05:32:07;2.65;;;1.58;;
49962;SDS011;36180;57.678;11.910;2022-09-01T05:34:37;2.25;;;1.58;;
49962;SDS011;36180;57.678;11.910;2022-09-01T05:37:05;3.95;;;1.80;;
49962;SDS011;36180;57.678;11.910;2022-09-01T05:39:36;3.00;;;2.20;;
49962;SDS011;36180;57.678;11.910;2022-09-01T05:42:04;2.30;;;1.65;;
49962;SDS011;36180;57.678;11.910;2022-09-01T05:44:33;3.60;;;1.77;;
49962;SDS011;36180;57.678;11.910;2022-09-01T05:47:02;2.53;;;1.70;;
49962;SDS011;36180;57.678;11.910;2022-09-01T05:49:30;3.95;;;1.75;;
49962;SDS011;36180;57.678;11.910;2022-09-01T05:52:01;2.08;;;1.70;;
49962;SDS011;36180;57.678;11.910;2022-09-01T05:54:29;5.85;;;1.60;;
49962;SDS011;36180;57.678;11.910;2022-09-01T05:56:57;4.90;;;1.90;;
49962;SDS011;36180;57.678;11.910;2022-09-01T05:59:25;3.47;;;1.60;;
49962;SDS011;36180;57.678;11.910;2022-09-01T06:02:20;2.67;;;1.90;;
49962;SDS011;36180;57.678;11.910;2022-09-01T06:04:47;3.03;;;1.50;;
49962;SDS011;36180;57.678;11.910;2022-09-01T06:07:22;2.35;;;1.45;;
49962;SDS011;36180;57.678;11.910;2022-09-01T06:09:54;2.33;;;1.75;;
49962;SDS011;36180;57.678;11.910;2022-09-01T06:12:22;2.63;;;1.70;;
49962;SDS011;36180;57.678;11.910;2022-09-01T06:14:51;5.38;;;1.67;;
49962;SDS011;36180;57.678;11.910;2022-09-01T06:17:21;2.97;;;1.60;;
49962;SDS011;36180;57.678;11.910;2022-09-01T06:19:50;3.20;;;1.83;;
49962;SDS011;36180;57.678;11.910;2022-09-01T06:22:19;4.50;;;2.08;;
49962;SDS011;36180;57.678;11.910;2022-09-01T06:24:48;4.45;;;1.85;;
49962;SDS011;36180;57.678;11.910;2022-09-01T06:27:16;4.68;;;2.15;;
49962;SDS011;36180;57.678;11.910;2022-09-01T06:29:45;7.45;;;1.77;;
49962;SDS011;36180;57.678;11.910;2022-09-01T06:32:18;6.28;;;2.20;;
49962;SDS011;36180;57.678;11.910;2022-09-01T06:34:50;2.33;;;1.90;;
49962;SDS011;36180;57.678;11.910;2022-09-01T06:37:17;4.43;;;2.10;;
49962;SDS011;36180;57.678;11.910;2022-09-01T06:39:48;3.55;;;1.90;;
49962;SDS011;36180;57.678;11.910;2022-09-01T06:42:16;4.45;;;1.90;;
49962;SDS011;36180;57.678;11.910;2022-09-01T06:44:52;4.68;;;2.00;;
49962;SDS011;36180;57.678;11.910;2022-09-01T06:47:21;3.78;;;1.95;;
49962;SDS011;36180;57.678;11.910;2022-09-01T06:49:49;3.45;;;1.52;;
49962;SDS011;36180;57.678;11.910;2022-09-01T06:52:19;4.88;;;1.73;;
49962;SDS011;36180;57.678;11.910;2022-09-01T06:54:48;2.67;;;1.60;;
49962;SDS011;36180;57.678;11.910;2022-09-01T06:57:17;2.58;;;1.70;;
49962;SDS011;36180;57.678;11.910;2022-09-01T06:59:45;5.97;;;1.63;;
49962;SDS011;36180;57.678;11.910;2022-09-01T07:02:15;5.15;;;1.80;;
49962;SDS011;36180;57.678;11.910;2022-09-01T07:05:04;5.03;;;1.60;;
49962;SDS011;36180;57.678;11.910;2022-09-01T07:07:32;3.25;;;1.83;;
49962;SDS011;36180;57.678;11.910;2022-09-01T07:10:20;4.53;;;1.63;;
49962;SDS011;36180;57.678;11.910;2022-09-01T07:12:54;5.03;;;1.77;;
49962;SDS011;36180;57.678;11.910;2022-09-01T07:15:26;1.90;;;1.52;;
49962;SDS011;36180;57.678;11.910;2022-09-01T07:17:55;4.05;;;1.85;;
49962;SDS011;36180;57.678;11.910;2022-09-01T07:20:24;2.40;;;1.73;;
49962;SDS011;36180;57.678;11.910;2022-09-01T07:22:55;4.43;;;1.70;;
49962;SDS011;36180;57.678;11.910;2022-09-01T07:25:23;2.50;;;1.45;;
49962;SDS011;36180;57.678;11.910;2022-09-01T07:28:04;2.28;;;1.83;;
49962;SDS011;36180;57.678;11.910;2022-09-01T07:30:31;2.45;;;1.13;;
49962;SDS011;36180;57.678;11.910;2022-09-01T07:33:00;2.45;;;1.45;;
49962;SDS011;36180;57.678;11.910;2022-09-01T07:35:28;2.03;;;1.25;;
49962;SDS011;36180;57.678;11.910;2022-09-01T07:37:58;2.78;;;1.65;;
49962;SDS011;36180;57.678;11.910;2022-09-01T07:40:25;2.38;;;1.23;;
49962;SDS011;36180;57.678;11.910;2022-09-01T07:43:17;1.98;;;1.15;;
49962;SDS011;36180;57.678;11.910;2022-09-01T07:46:24;2.53;;;1.70;;
49962;SDS011;36180;57.678;11.910;2022-09-01T07:48:52;1.63;;;1.20;;
49962;SDS011;36180;57.678;11.910;2022-09-01T07:51:22;1.23;;;1.13;;
49962;SDS011;36180;57.678;11.910;2022-09-01T07:53:51;0.98;;;0.88;;
49962;SDS011;36180;57.678;11.910;2022-09-01T07:56:20;1.52;;;0.98;;
49962;SDS011;36180;57.678;11.910;2022-09-01T07:58:50;3.03;;;1.05;;
49962;SDS011;36180;57.678;11.910;2022-09-01T08:01:18;2.20;;;1.13;;
49962;SDS011;36180;57.678;11.910;2022-09-01T08:03:48;2.78;;;0.98;;
49962;SDS011;36180;57.678;11.910;2022-09-01T08:06:19;2.38;;;1.08;;
49962;SDS011;36180;57.678;11.910;2022-09-01T08:08:51;1.38;;;0.80;;
49962;SDS011;36180;57.678;11.910;2022-09-01T08:11:20;0.95;;;0.80;;
49962;SDS011;36180;57.678;11.910;2022-09-01T08:13:50;1.67;;;1.05;;
49962;SDS011;36180;57.678;11.910;2022-09-01T08:16:18;0.95;;;0.70;;
49962;SDS011;36180;57.678;11.910;2022-09-01T08:18:47;1.95;;;0.93;;
49962;SDS011;36180;57.678;11.910;2022-09-01T08:21:24;1.10;;;0.80;;
49962;SDS011;36180;57.678;11.910;2022-09-01T08:23:59;2.50;;;1.00;;
49962;SDS011;36180;57.678;11.910;2022-09-01T08:26:27;1.85;;;0.80;;
49962;SDS011;36180;57.678;11.910;2022-09-01T08:28:54;1.30;;;0.90;;
49962;SDS011;36180;57.678;11.910;2022-09-01T08:31:33;3.80;;;0.90;;
49962;SDS011;36180;57.678;11.910;2022-09-01T08:34:01;2.95;;;0.80;;
49962;SDS011;36180;57.678;11.910;2022-09-01T08:36:29;4.43;;;1.10;;
49962;SDS011;36180;57.678;11.910;2022-09-01T08:38:57;1.17;;;0.80;;
49962;SDS011;36180;57.678;11.910;2022-09-01T08:41:29;2.72;;;1.02;;
49962;SDS011;36180;57.678;11.910;2022-09-01T08:44:06;1.50;;;0.90;;
49962;SDS011;36180;57.678;11.910;2022-09-01T08:46:40;1.58;;;0.85;;
49962;SDS011;36180;57.678;11.910;2022-09-01T08:49:12;0.90;;;0.68;;
49962;SDS011;36180;57.678;11.910;2022-09-01T08:51:59;2.85;;;1.00;;
49962;SDS011;36180;57.678;11.910;2022-09-01T08:54:32;2.45;;;0.88;;
49962;SDS011;36180;57.678;11.910;2022-09-01T08:57:07;1.60;;;0.80;;
49962;SDS011;36180;57.678;11.910;2022-09-01T09:00:03;4.10;;;0.98;;
49962;SDS011;36180;57.678;11.910;2022-09-01T09:02:37;1.63;;;0.70;;
49962;SDS011;36180;57.678;11.910;2022-09-01T09:05:13;1.00;;;0.70;;
49962;SDS011;36180;57.678;11.910;2022-09-01T09:07:57;0.85;;;0.60;;
49962;SDS011;36180;57.678;11.910;2022-09-01T09:10:34;0.80;;;0.80;;
49962;SDS011;36180;57.678;11.910;2022-09-01T09:13:07;1.70;;;0.57;;
49962;SDS011;36180;57.678;11.910;2022-09-01T09:15:41;2.50;;;0.80;;
49962;SDS011;36180;57.678;11.910;2022-09-01T09:18:15;1.35;;;0.93;;
49962;SDS011;36180;57.678;11.910;2022-09-01T09:20:48;1.20;;;0.65;;
49962;SDS011;36180;57.678;11.910;2022-09-01T09:23:17;0.75;;;0.75;;
49962;SDS011;36180;57.678;11.910;2022-09-01T09:25:50;2.65;;;0.70;;
49962;SDS011;36180;57.678;11.910;2022-09-01T09:28:18;1.42;;;0.80;;
49962;SDS011;36180;57.678;11.910;2022-09-01T09:30:45;1.45;;;0.60;;
49962;SDS011;36180;57.678;11.910;2022-09-01T09:33:31;1.75;;;0.70;;
49962;SDS011;36180;57.678;11.910;2022-09-01T09:36:14;1.05;;;0.70;;
49962;SDS011;36180;57.678;11.910;2022-09-01T09:38:44;0.82;;;0.70;;
49962;SDS011;36180;57.678;11.910;2022-09-01T09:41:15;1.02;;;0.80;;
49962;SDS011;36180;57.678;11.910;2022-09-01T09:43:45;2.65;;;0.70;;
49962;SDS011;36180;57.678;11.910;2022-09-01T09:46:24;1.02;;;0.80;;
49962;SDS011;36180;57.678;11.910;2022-09-01T09:49:05;3.60;;;1.15;;
49962;SDS011;36180;57.678;11.910;2022-09-01T09:51:38;4.95;;;1.13;;
49962;SDS011;36180;57.678;11.910;2022-09-01T09:54:13;5.07;;;0.80;;
49962;SDS011;36180;57.678;11.910;2022-09-01T09:56:43;1.90;;;0.70;;
49962;SDS011;36180;57.678;11.910;2022-09-01T09:59:19;1.02;;;0.70;;
49962;SDS011;36180;57.678;11.910;2022-09-01T10:01:48;4.35;;;0.98;;
49962;SDS011;36180;57.678;11.910;2022-09-01T10:04:29;1.73;;;0.82;;
49962;SDS011;36180;57.678;11.910;2022-09-01T10:09:32;1.98;;;0.70;;
49962;SDS011;36180;57.678;11.910;2022-09-01T10:12:01;0.70;;;0.65;;
49962;SDS011;36180;57.678;11.910;2022-09-01T10:14:32;3.65;;;0.80;;
49962;SDS011;36180;57.678;11.910;2022-09-01T10:17:02;2.50;;;0.95;;
49962;SDS011;36180;57.678;11.910;2022-09-01T10:19:32;3.17;;;0.75;;
49962;SDS011;36180;57.678;11.910;2022-09-01T10:22:01;0.90;;;0.68;;
49962;SDS011;36180;57.678;11.910;2022-09-01T10:24:29;3.40;;;0.80;;
49962;SDS011;36180;57.678;11.910;2022-09-01T10:26:58;3.08;;;0.70;;
49962;SDS011;36180;57.678;11.910;2022-09-01T10:29:27;2.70;;;0.75;;
49962;SDS011;36180;57.678;11.910;2022-09-01T10:31:58;2.40;;;0.85;;
49962;SDS011;36180;57.678;11.910;2022-09-01T10:34:26;1.70;;;0.70;;
49962;SDS011;36180;57.678;11.910;2022-09-01T10:36:58;0.93;;;0.70;;
49962;SDS011;36180;57.678;11.910;2022-09-01T10:39:25;1.77;;;0.68;;
49962;SDS011;36180;57.678;11.910;2022-09-01T10:41:55;5.47;;;0.95;;
49962;SDS011;36180;57.678;11.910;2022-09-01T10:44:23;2.55;;;0.80;;
49962;SDS011;36180;57.678;11.910;2022-09-01T10:46:55;1.15;;;0.70;;
49962;SDS011;36180;57.678;11.910;2022-09-01T10:52:52;0.75;;;0.60;;
49962;SDS011;36180;57.678;11.910;2022-09-01T11:01:00;1.08;;;0.70;;
49962;SDS011;36180;57.678;11.910;2022-09-01T11:03:37;1.58;;;0.70;;
49962;SDS011;36180;57.678;11.910;2022-09-01T11:06:32;1.92;;;0.70;;
49962;SDS011;36180;57.678;11.910;2022-09-01T11:11:44;0.98;;;0.88;;
49962;SDS011;36180;57.678;11.910;2022-09-01T11:14:17;1.27;;;0.90;;
49962;SDS011;36180;57.678;11.910;2022-09-01T11:19:34;1.17;;;0.88;;
49962;SDS011;36180;57.678;11.910;2022-09-01T11:22:08;2.15;;;0.80;;
49962;SDS011;36180;57.678;11.910;2022-09-01T11:24:46;0.82;;;0.82;;
49962;SDS011;36180;57.678;11.910;2022-09-01T11:30:35;1.40;;;0.70;;
49962;SDS011;36180;57.678;11.910;2022-09-01T11:33:25;4.43;;;1.00;;
49962;SDS011;36180;57.678;11.910;2022-09-01T11:36:10;1.10;;;0.60;;
49962;SDS011;36180;57.678;11.910;2022-09-01T11:38:42;1.65;;;0.70;;
49962;SDS011;36180;57.678;11.910;2022-09-01T11:41:22;1.00;;;0.70;;
49962;SDS011;36180;57.678;11.910;2022-09-01T11:43:53;2.55;;;0.77;;
49962;SDS011;36180;57.678;11.910;2022-09-01T11:46:24;1.38;;;0.70;;
49962;SDS011;36180;57.678;11.910;2022-09-01T11:48:53;1.85;;;0.60;;
49962;SDS011;36180;57.678;11.910;2022-09-01T11:51:21;2.67;;;0.68;;
49962;SDS011;36180;57.678;11.910;2022-09-01T11:53:48;0.77;;;0.73;;
49962;SDS011;36180;57.678;11.910;2022-09-01T11:56:16;1.38;;;0.70;;
49962;SDS011;36180;57.678;11.910;2022-09-01T11:58:48;1.50;;;0.82;;
49962;SDS011;36180;57.678;11.910;2022-09-01T12:01:16;0.82;;;0.70;;
49962;SDS011;36180;57.678;11.910;2022-09-01T12:03:45;0.73;;;0.73;;
49962;SDS011;36180;57.678;11.910;2022-09-01T12:06:17;1.55;;;0.80;;
49962;SDS011;36180;57.678;11.910;2022-09-01T12:08:50;0.82;;;0.73;;
49962;SDS011;36180;57.678;11.910;2022-09-01T12:11:20;0.93;;;0.70;;
49962;SDS011;36180;57.678;11.910;2022-09-01T12:13:56;1.65;;;0.95;;
49962;SDS011;36180;57.678;11.910;2022-09-01T12:16:25;3.03;;;0.80;;
49962;SDS011;36180;57.678;11.910;2022-09-01T12:18:53;0.80;;;0.80;;
49962;SDS011;36180;57.678;11.910;2022-09-01T12:21:23;1.00;;;0.85;;
49962;SDS011;36180;57.678;11.910;2022-09-01T12:23:52;2.70;;;0.80;;
49962;SDS011;36180;57.678;11.910;2022-09-01T12:26:20;1.33;;;0.73;;
49962;SDS011;36180;57.678;11.910;2022-09-01T12:28:50;0.95;;;0.77;;
49962;SDS011;36180;57.678;11.910;2022-09-01T12:31:20;0.95;;;0.70;;
49962;SDS011;36180;57.678;11.910;2022-09-01T12:33:48;1.05;;;0.70;;
49962;SDS011;36180;57.678;11.910;2022-09-01T12:36:20;0.75;;;0.60;;
49962;SDS011;36180;57.678;11.910;2022-09-01T12:38:49;0.77;;;0.77;;
49962;SDS011;36180;57.678;11.910;2022-09-01T12:41:30;2.00;;;0.90;;
49962;SDS011;36180;57.678;11.910;2022-09-01T12:46:56;1.15;;;0.80;;
49962;SDS011;36180;57.678;11.910;2022-09-01T12:49:25;2.47;;;1.10;;
49962;SDS011;36180;57.678;11.910;2022-09-01T12:54:51;2.33;;;0.80;;
49962;SDS011;36180;57.678;11.910;2022-09-01T12:57:23;1.35;;;0.90;;
49962;SDS011;36180;57.678;11.910;2022-09-01T13:00:06;1.15;;;0.80;;
49962;SDS011;36180;57.678;11.910;2022-09-01T13:02:36;2.80;;;0.85;;
49962;SDS011;36180;57.678;11.910;2022-09-01T13:05:18;1.38;;;0.80;;
49962;SDS011;36180;57.678;11.910;2022-09-01T13:07:51;0.93;;;0.90;;
49962;SDS011;36180;57.678;11.910;2022-09-01T13:10:19;1.90;;;0.80;;
49962;SDS011;36180;57.678;11.910;2022-09-01T13:12:45;2.78;;;0.93;;
49962;SDS011;36180;57.678;11.910;2022-09-01T13:15:13;2.38;;;0.90;;
49962;SDS011;36180;57.678;11.910;2022-09-01T13:17:41;0.70;;;0.63;;
49962;SDS011;36180;57.678;11.910;2022-09-01T13:20:08;3.22;;;0.95;;
49962;SDS011;36180;57.678;11.910;2022-09-01T13:22:37;2.05;;;1.00;;
49962;SDS011;36180;57.678;11.910;2022-09-01T13:25:05;1.13;;;0.65;;
49962;SDS011;36180;57.678;11.910;2022-09-01T13:27:33;1.10;;;0.80;;
49962;SDS011;36180;57.678;11.910;2022-09-01T13:30:00;1.33;;;0.90;;
49962;SDS011;36180;57.678;11.910;2022-09-01T13:32:27;0.88;;;0.63;;
49962;SDS011;36180;57.678;11.910;2022-09-01T13:34:55;1.77;;;0.80;;
49962;SDS011;36180;57.678;11.910;2022-09-01T13:37:22;1.98;;;0.80;;
49962;SDS011;36180;57.678;11.910;2022-09-01T13:39:49;1.33;;;0.80;;
49962;SDS011;36180;57.678;11.910;2022-09-01T13:42:16;0.65;;;0.55;;
49962;SDS011;36180;57.678;11.910;2022-09-01T13:44:44;4.40;;;0.90;;
49962;SDS011;36180;57.678;11.910;2022-09-01T13:47:12;0.70;;;0.60;;
49962;SDS011;36180;57.678;11.910;2022-09-01T13:49:39;1.10;;;0.75;;
49962;SDS011;36180;57.678;11.910;2022-09-01T13:52:07;0.75;;;0.70;;
49962;SDS011;36180;57.678;11.910;2022-09-01T13:54:34;0.60;;;0.60;;
49962;SDS011;36180;57.678;11.910;2022-09-01T13:57:01;0.82;;;0.73;;
49962;SDS011;36180;57.678;11.910;2022-09-01T13:59:28;0.90;;;0.80;;
49962;SDS011;36180;57.678;11.910;2022-09-01T14:01:57;2.13;;;0.90;;
49962;SDS011;36180;57.678;11.910;2022-09-01T14:04:25;2.90;;;0.80;;
49962;SDS011;36180;57.678;11.910;2022-09-01T14:06:52;1.00;;;0.75;;
49962;SDS011;36180;57.678;11.910;2022-09-01T14:09:20;0.85;;;0.85;;
49962;SDS011;36180;57.678;11.910;2022-09-01T14:11:51;1.33;;;0.60;;
49962;SDS011;36180;57.678;11.910;2022-09-01T14:14:18;2.03;;;0.90;;
49962;SDS011;36180;57.678;11.910;2022-09-01T14:16:45;2.50;;;0.70;;
49962;SDS011;36180;57.678;11.910;2022-09-01T14:19:12;0.88;;;0.63;;
49962;SDS011;36180;57.678;11.910;2022-09-01T14:21:39;1.13;;;0.90;;
49962;SDS011;36180;57.678;11.910;2022-09-01T14:24:06;5.40;;;0.95;;
49962;SDS011;36180;57.678;11.910;2022-09-01T14:26:35;6.57;;;1.65;;
49962;SDS011;36180;57.678;11.910;2022-09-01T14:29:02;3.95;;;1.08;;
49962;SDS011;36180;57.678;11.910;2022-09-01T14:31:29;3.03;;;0.82;;
49962;SDS011;36180;57.678;11.910;2022-09-01T14:33:56;2.15;;;0.88;;
49962;SDS011;36180;57.678;11.910;2022-09-01T14:36:24;1.05;;;0.77;;
49962;SDS011;36180;57.678;11.910;2022-09-01T14:38:52;7.75;;;1.20;;
49962;SDS011;36180;57.678;11.910;2022-09-01T14:41:21;2.40;;;1.00;;
49962;SDS011;36180;57.678;11.910;2022-09-01T14:43:51;3.85;;;0.90;;
49962;SDS011;36180;57.678;11.910;2022-09-01T14:46:19;1.90;;;1.00;;
49962;SDS011;36180;57.678;11.910;2022-09-01T14:48:47;2.38;;;0.98;;
49962;SDS011;36180;57.678;11.910;2022-09-01T14:51:18;3.10;;;0.98;;
49962;SDS011;36180;57.678;11.910;2022-09-01T14:53:47;2.00;;;1.05;;
49962;SDS011;36180;57.678;11.910;2022-09-01T14:56:15;2.35;;;0.82;;
49962;SDS011;36180;57.678;11.910;2022-09-01T14:58:43;4.25;;;0.68;;
49962;SDS011;36180;57.678;11.910;2022-09-01T15:01:13;7.50;;;1.60;;
49962;SDS011;36180;57.678;11.910;2022-09-01T15:03:40;5.28;;;1.10;;
49962;SDS011;36180;57.678;11.910;2022-09-01T15:06:09;5.97;;;1.13;;
49962;SDS011;36180;57.678;11.910;2022-09-01T15:08:37;2.25;;;0.85;;
49962;SDS011;36180;57.678;11.910;2022-09-01T15:11:06;3.80;;;1.13;;
49962;SDS011;36180;57.678;11.910;2022-09-01T15:13:34;6.13;;;0.80;;
49962;SDS011;36180;57.678;11.910;2022-09-01T15:16:01;1.15;;;0.75;;
49962;SDS011;36180;57.678;11.910;2022-09-01T15:18:30;3.33;;;0.90;;
49962;SDS011;36180;57.678;11.910;2022-09-01T15:20:57;4.47;;;0.95;;
49962;SDS011;36180;57.678;11.910;2022-09-01T15:23:24;5.00;;;1.00;;
49962;SDS011;36180;57.678;11.910;2022-09-01T15:25:52;0.80;;;0.80;;